sensor_id;sensor_type;location;lat;lon;timestamp;P1;durP1;ratioP1;P2;durP2;ratioP2
78985;SDS011;68384;55.750;48.746;2023-05-14T00:00:16;4.22;;;3.40;;
78985;SDS011;68384;55.750;48.746;2023-05-14T00:01:20;4.78;;;3.33;;
78985;SDS011;68384;55.750;48.746;2023-05-14T00:02:24;4.68;;;3.90;;
78985;SDS011;68384;55.750;48.746;2023-05-14T00:03:27;9.70;;;4.10;;
78985;SDS011;68384;55.750;48.746;2023-05-14T00:04:31;5.03;;;3.97;;
78985;SDS011;68384;55.750;48.746;2023-05-14T00:05:34;5.22;;;3.20;;
78985;SDS011;68384;55.750;48.746;2023-05-14T00:06:38;5.03;;;3.47;;
78985;SDS011;68384;55.750;48.746;2023-05-14T00:07:41;4.72;;;3.70;;
78985;SDS011;68384;55.750;48.746;2023-05-14T00:08:45;5.07;;;3.70;;
78985;SDS011;68384;55.750;48.746;2023-05-14T00:09:48;6.90;;;4.10;;
78985;SDS011;68384;55.750;48.746;2023-05-14T00:10:52;5.10;;;3.75;;
78985;SDS011;68384;55.750;48.746;2023-05-14T00:11:55;5.47;;;3.97;;
78985;SDS011;68384;55.750;48.746;2023-05-14T00:12:59;6.47;;;4.00;;
78985;SDS011;68384;55.750;48.746;2023-05-14T00:14:02;7.57;;;4.70;;
78985;SDS011;68384;55.750;48.746;2023-05-14T00:15:08;4.65;;;3.95;;
78985;SDS011;68384;55.750;48.746;2023-05-14T00:16:11;5.47;;;4.28;;
78985;SDS011;68384;55.750;48.746;2023-05-14T00:17:15;9.23;;;4.57;;
78985;SDS011;68384;55.750;48.746;2023-05-14T00:18:18;6.63;;;4.53;;
78985;SDS011;68384;55.750;48.746;2023-05-14T00:19:22;7.18;;;4.78;;
78985;SDS011;68384;55.750;48.746;2023-05-14T00:20:26;6.30;;;4.10;;
78985;SDS011;68384;55.750;48.746;2023-05-14T00:21:29;6.72;;;4.80;;
78985;SDS011;68384;55.750;48.746;2023-05-14T00:22:33;5.65;;;4.75;;
78985;SDS011;68384;55.750;48.746;2023-05-14T00:23:38;5.90;;;4.30;;
78985;SDS011;68384;55.750;48.746;2023-05-14T00:24:41;5.85;;;4.57;;
78985;SDS011;68384;55.750;48.746;2023-05-14T00:25:45;6.13;;;4.78;;
78985;SDS011;68384;55.750;48.746;2023-05-14T00:26:48;7.03;;;5.03;;
78985;SDS011;68384;55.750;48.746;2023-05-14T00:27:52;6.85;;;5.15;;
78985;SDS011;68384;55.750;48.746;2023-05-14T00:28:55;5.63;;;4.97;;
78985;SDS011;68384;55.750;48.746;2023-05-14T00:29:59;6.30;;;5.05;;
78985;SDS011;68384;55.750;48.746;2023-05-14T00:31:04;6.10;;;4.78;;
78985;SDS011;68384;55.750;48.746;2023-05-14T00:32:08;8.02;;;4.75;;
78985;SDS011;68384;55.750;48.746;2023-05-14T00:33:11;6.72;;;5.72;;
78985;SDS011;68384;55.750;48.746;2023-05-14T00:34:15;7.70;;;4.95;;
78985;SDS011;68384;55.750;48.746;2023-05-14T00:35:18;6.57;;;5.53;;
78985;SDS011;68384;55.750;48.746;2023-05-14T00:36:23;6.70;;;4.80;;
78985;SDS011;68384;55.750;48.746;2023-05-14T00:37:26;7.10;;;5.40;;
78985;SDS011;68384;55.750;48.746;2023-05-14T00:38:30;7.82;;;5.30;;
78985;SDS011;68384;55.750;48.746;2023-05-14T00:39:33;6.50;;;5.07;;
78985;SDS011;68384;55.750;48.746;2023-05-14T00:40:36;7.07;;;4.68;;
78985;SDS011;68384;55.750;48.746;2023-05-14T00:41:40;7.28;;;6.00;;
78985;SDS011;68384;55.750;48.746;2023-05-14T00:42:44;7.68;;;5.55;;
78985;SDS011;68384;55.750;48.746;2023-05-14T00:43:47;7.82;;;5.53;;
78985;SDS011;68384;55.750;48.746;2023-05-14T00:44:51;7.30;;;5.40;;
78985;SDS011;68384;55.750;48.746;2023-05-14T00:45:54;6.20;;;4.97;;
78985;SDS011;68384;55.750;48.746;2023-05-14T00:46:59;6.93;;;5.30;;
78985;SDS011;68384;55.750;48.746;2023-05-14T00:48:03;7.03;;;5.50;;
78985;SDS011;68384;55.750;48.746;2023-05-14T00:49:07;7.45;;;5.07;;
78985;SDS011;68384;55.750;48.746;2023-05-14T00:50:11;6.47;;;4.90;;
78985;SDS011;68384;55.750;48.746;2023-05-14T00:51:17;7.13;;;4.93;;
78985;SDS011;68384;55.750;48.746;2023-05-14T00:52:20;6.72;;;5.63;;
78985;SDS011;68384;55.750;48.746;2023-05-14T00:53:24;6.65;;;4.38;;
78985;SDS011;68384;55.750;48.746;2023-05-14T00:54:28;6.57;;;5.55;;
78985;SDS011;68384;55.750;48.746;2023-05-14T00:55:32;6.50;;;5.00;;
78985;SDS011;68384;55.750;48.746;2023-05-14T00:56:35;7.05;;;5.18;;
78985;SDS011;68384;55.750;48.746;2023-05-14T00:57:39;6.93;;;5.38;;
78985;SDS011;68384;55.750;48.746;2023-05-14T00:58:43;6.15;;;5.20;;
78985;SDS011;68384;55.750;48.746;2023-05-14T00:59:47;5.68;;;4.72;;
78985;SDS011;68384;55.750;48.746;2023-05-14T01:00:50;5.30;;;4.80;;
78985;SDS011;68384;55.750;48.746;2023-05-14T01:01:53;11.73;;;5.30;;
78985;SDS011;68384;55.750;48.746;2023-05-14T01:02:58;7.43;;;5.32;;
78985;SDS011;68384;55.750;48.746;2023-05-14T01:04:03;6.80;;;4.90;;
78985;SDS011;68384;55.750;48.746;2023-05-14T01:05:08;6.75;;;5.32;;
78985;SDS011;68384;55.750;48.746;2023-05-14T01:06:12;7.18;;;5.50;;
78985;SDS011;68384;55.750;48.746;2023-05-14T01:07:22;7.47;;;5.20;;
78985;SDS011;68384;55.750;48.746;2023-05-14T01:08:35;7.82;;;5.32;;
78985;SDS011;68384;55.750;48.746;2023-05-14T01:09:49;8.00;;;5.82;;
78985;SDS011;68384;55.750;48.746;2023-05-14T01:10:56;8.55;;;5.45;;
78985;SDS011;68384;55.750;48.746;2023-05-14T01:12:05;6.55;;;5.13;;
78985;SDS011;68384;55.750;48.746;2023-05-14T01:13:15;6.28;;;5.13;;
78985;SDS011;68384;55.750;48.746;2023-05-14T01:14:27;8.20;;;5.13;;
78985;SDS011;68384;55.750;48.746;2023-05-14T01:15:36;8.95;;;5.60;;
78985;SDS011;68384;55.750;48.746;2023-05-14T01:16:42;6.78;;;5.10;;
78985;SDS011;68384;55.750;48.746;2023-05-14T01:17:47;7.75;;;5.45;;
78985;SDS011;68384;55.750;48.746;2023-05-14T01:18:57;7.50;;;5.10;;
78985;SDS011;68384;55.750;48.746;2023-05-14T01:20:03;7.60;;;5.07;;
78985;SDS011;68384;55.750;48.746;2023-05-14T01:21:23;8.43;;;4.88;;
78985;SDS011;68384;55.750;48.746;2023-05-14T01:22:34;6.25;;;5.30;;
78985;SDS011;68384;55.750;48.746;2023-05-14T01:23:38;8.05;;;5.30;;
78985;SDS011;68384;55.750;48.746;2023-05-14T01:24:41;7.15;;;5.75;;
78985;SDS011;68384;55.750;48.746;2023-05-14T01:25:45;5.78;;;4.75;;
78985;SDS011;68384;55.750;48.746;2023-05-14T01:26:49;8.43;;;5.47;;
78985;SDS011;68384;55.750;48.746;2023-05-14T01:27:54;8.63;;;5.13;;
78985;SDS011;68384;55.750;48.746;2023-05-14T01:29:04;8.07;;;5.28;;
78985;SDS011;68384;55.750;48.746;2023-05-14T01:30:15;7.22;;;5.38;;
78985;SDS011;68384;55.750;48.746;2023-05-14T01:31:23;6.50;;;5.20;;
78985;SDS011;68384;55.750;48.746;2023-05-14T01:32:30;6.68;;;5.30;;
78985;SDS011;68384;55.750;48.746;2023-05-14T01:33:35;8.48;;;5.28;;
78985;SDS011;68384;55.750;48.746;2023-05-14T01:34:41;7.88;;;5.03;;
78985;SDS011;68384;55.750;48.746;2023-05-14T01:35:46;7.25;;;5.57;;
78985;SDS011;68384;55.750;48.746;2023-05-14T01:36:56;6.97;;;4.85;;
78985;SDS011;68384;55.750;48.746;2023-05-14T01:38:00;6.38;;;5.35;;
78985;SDS011;68384;55.750;48.746;2023-05-14T01:39:05;5.70;;;4.70;;
78985;SDS011;68384;55.750;48.746;2023-05-14T01:40:10;7.28;;;5.47;;
78985;SDS011;68384;55.750;48.746;2023-05-14T01:41:16;8.50;;;5.78;;
78985;SDS011;68384;55.750;48.746;2023-05-14T01:42:20;5.50;;;4.72;;
78985;SDS011;68384;55.750;48.746;2023-05-14T01:43:25;6.93;;;4.95;;
78985;SDS011;68384;55.750;48.746;2023-05-14T01:44:28;7.18;;;5.30;;
78985;SDS011;68384;55.750;48.746;2023-05-14T01:45:34;6.63;;;5.30;;
78985;SDS011;68384;55.750;48.746;2023-05-14T01:46:37;6.50;;;4.72;;
78985;SDS011;68384;55.750;48.746;2023-05-14T01:47:41;5.97;;;4.80;;
78985;SDS011;68384;55.750;48.746;2023-05-14T01:48:45;9.25;;;5.28;;
78985;SDS011;68384;55.750;48.746;2023-05-14T01:49:49;9.30;;;5.13;;
78985;SDS011;68384;55.750;48.746;2023-05-14T01:50:52;8.55;;;5.10;;
78985;SDS011;68384;55.750;48.746;2023-05-14T01:51:57;7.72;;;4.72;;
78985;SDS011;68384;55.750;48.746;2023-05-14T01:53:00;5.72;;;5.05;;
78985;SDS011;68384;55.750;48.746;2023-05-14T01:54:04;6.70;;;4.80;;
78985;SDS011;68384;55.750;48.746;2023-05-14T01:55:07;6.97;;;5.00;;
78985;SDS011;68384;55.750;48.746;2023-05-14T01:56:12;6.72;;;4.70;;
78985;SDS011;68384;55.750;48.746;2023-05-14T01:57:15;7.00;;;4.60;;
78985;SDS011;68384;55.750;48.746;2023-05-14T01:58:19;8.90;;;4.97;;
78985;SDS011;68384;55.750;48.746;2023-05-14T01:59:22;6.18;;;4.95;;
78985;SDS011;68384;55.750;48.746;2023-05-14T02:00:26;6.47;;;4.93;;
78985;SDS011;68384;55.750;48.746;2023-05-14T02:01:29;7.43;;;4.70;;
78985;SDS011;68384;55.750;48.746;2023-05-14T02:02:33;6.13;;;4.80;;
78985;SDS011;68384;55.750;48.746;2023-05-14T02:03:36;6.30;;;4.82;;
78985;SDS011;68384;55.750;48.746;2023-05-14T02:04:40;7.45;;;5.20;;
78985;SDS011;68384;55.750;48.746;2023-05-14T02:05:43;7.75;;;4.90;;
78985;SDS011;68384;55.750;48.746;2023-05-14T02:06:47;4.75;;;4.07;;
78985;SDS011;68384;55.750;48.746;2023-05-14T02:07:51;6.68;;;4.90;;
78985;SDS011;68384;55.750;48.746;2023-05-14T02:08:55;5.32;;;4.47;;
78985;SDS011;68384;55.750;48.746;2023-05-14T02:09:58;6.25;;;4.60;;
78985;SDS011;68384;55.750;48.746;2023-05-14T02:11:02;6.70;;;4.50;;
78985;SDS011;68384;55.750;48.746;2023-05-14T02:12:06;5.68;;;4.53;;
78985;SDS011;68384;55.750;48.746;2023-05-14T02:13:11;5.70;;;4.88;;
78985;SDS011;68384;55.750;48.746;2023-05-14T02:14:14;5.70;;;4.78;;
78985;SDS011;68384;55.750;48.746;2023-05-14T02:15:18;7.25;;;5.15;;
78985;SDS011;68384;55.750;48.746;2023-05-14T02:16:22;8.02;;;5.90;;
78985;SDS011;68384;55.750;48.746;2023-05-14T02:17:26;7.78;;;5.40;;
78985;SDS011;68384;55.750;48.746;2023-05-14T02:18:29;6.63;;;5.35;;
78985;SDS011;68384;55.750;48.746;2023-05-14T02:19:33;5.55;;;4.78;;
78985;SDS011;68384;55.750;48.746;2023-05-14T02:20:36;6.28;;;5.10;;
78985;SDS011;68384;55.750;48.746;2023-05-14T02:21:40;6.00;;;5.40;;
78985;SDS011;68384;55.750;48.746;2023-05-14T02:22:43;5.95;;;5.18;;
78985;SDS011;68384;55.750;48.746;2023-05-14T02:23:49;9.52;;;5.57;;
78985;SDS011;68384;55.750;48.746;2023-05-14T02:24:52;7.00;;;5.53;;
78985;SDS011;68384;55.750;48.746;2023-05-14T02:25:57;6.07;;;5.32;;
78985;SDS011;68384;55.750;48.746;2023-05-14T02:26:59;10.15;;;5.50;;
78985;SDS011;68384;55.750;48.746;2023-05-14T02:28:04;7.50;;;5.18;;
78985;SDS011;68384;55.750;48.746;2023-05-14T02:29:06;6.32;;;4.93;;
78985;SDS011;68384;55.750;48.746;2023-05-14T02:30:11;8.40;;;5.70;;
78985;SDS011;68384;55.750;48.746;2023-05-14T02:31:14;8.50;;;5.40;;
78985;SDS011;68384;55.750;48.746;2023-05-14T02:32:20;8.25;;;6.03;;
78985;SDS011;68384;55.750;48.746;2023-05-14T02:33:23;6.35;;;5.60;;
78985;SDS011;68384;55.750;48.746;2023-05-14T02:34:27;6.45;;;5.53;;
78985;SDS011;68384;55.750;48.746;2023-05-14T02:35:30;8.93;;;6.03;;
78985;SDS011;68384;55.750;48.746;2023-05-14T02:36:34;7.10;;;5.18;;
78985;SDS011;68384;55.750;48.746;2023-05-14T02:37:38;9.18;;;5.20;;
78985;SDS011;68384;55.750;48.746;2023-05-14T02:38:42;8.18;;;5.15;;
78985;SDS011;68384;55.750;48.746;2023-05-14T02:39:47;7.25;;;5.88;;
78985;SDS011;68384;55.750;48.746;2023-05-14T02:40:51;6.40;;;5.38;;
78985;SDS011;68384;55.750;48.746;2023-05-14T02:41:54;6.40;;;5.07;;
78985;SDS011;68384;55.750;48.746;2023-05-14T02:42:58;7.10;;;5.55;;
78985;SDS011;68384;55.750;48.746;2023-05-14T02:44:01;5.95;;;4.72;;
78985;SDS011;68384;55.750;48.746;2023-05-14T02:45:05;8.60;;;5.55;;
78985;SDS011;68384;55.750;48.746;2023-05-14T02:47:12;8.18;;;5.22;;
78985;SDS011;68384;55.750;48.746;2023-05-14T02:48:15;7.13;;;5.43;;
78985;SDS011;68384;55.750;48.746;2023-05-14T02:49:19;6.35;;;5.45;;
78985;SDS011;68384;55.750;48.746;2023-05-14T02:50:22;7.45;;;6.35;;
78985;SDS011;68384;55.750;48.746;2023-05-14T02:51:26;6.43;;;5.35;;
78985;SDS011;68384;55.750;48.746;2023-05-14T02:52:29;6.53;;;5.20;;
78985;SDS011;68384;55.750;48.746;2023-05-14T02:53:33;7.72;;;5.10;;
78985;SDS011;68384;55.750;48.746;2023-05-14T02:54:36;6.70;;;5.43;;
78985;SDS011;68384;55.750;48.746;2023-05-14T02:55:42;8.82;;;5.00;;
78985;SDS011;68384;55.750;48.746;2023-05-14T02:56:45;10.10;;;5.88;;
78985;SDS011;68384;55.750;48.746;2023-05-14T02:57:49;6.25;;;5.25;;
78985;SDS011;68384;55.750;48.746;2023-05-14T02:58:54;6.25;;;5.53;;
78985;SDS011;68384;55.750;48.746;2023-05-14T02:59:58;8.75;;;5.50;;
78985;SDS011;68384;55.750;48.746;2023-05-14T03:01:03;6.38;;;5.53;;
78985;SDS011;68384;55.750;48.746;2023-05-14T03:02:08;6.80;;;4.80;;
78985;SDS011;68384;55.750;48.746;2023-05-14T03:03:12;6.97;;;5.72;;
78985;SDS011;68384;55.750;48.746;2023-05-14T03:04:16;5.97;;;5.13;;
78985;SDS011;68384;55.750;48.746;2023-05-14T03:05:19;6.65;;;5.50;;
78985;SDS011;68384;55.750;48.746;2023-05-14T03:06:23;6.10;;;5.10;;
78985;SDS011;68384;55.750;48.746;2023-05-14T03:07:26;6.53;;;5.25;;
78985;SDS011;68384;55.750;48.746;2023-05-14T03:08:30;6.68;;;5.07;;
78985;SDS011;68384;55.750;48.746;2023-05-14T03:09:33;6.45;;;5.38;;
78985;SDS011;68384;55.750;48.746;2023-05-14T03:10:39;6.32;;;4.97;;
78985;SDS011;68384;55.750;48.746;2023-05-14T03:11:43;7.55;;;5.75;;
78985;SDS011;68384;55.750;48.746;2023-05-14T03:12:47;6.10;;;5.35;;
78985;SDS011;68384;55.750;48.746;2023-05-14T03:13:50;7.00;;;5.38;;
78985;SDS011;68384;55.750;48.746;2023-05-14T03:14:54;7.22;;;5.57;;
78985;SDS011;68384;55.750;48.746;2023-05-14T03:15:58;9.93;;;5.85;;
78985;SDS011;68384;55.750;48.746;2023-05-14T03:17:01;6.93;;;5.45;;
78985;SDS011;68384;55.750;48.746;2023-05-14T03:18:05;7.63;;;5.75;;
78985;SDS011;68384;55.750;48.746;2023-05-14T03:19:09;8.43;;;6.03;;
78985;SDS011;68384;55.750;48.746;2023-05-14T03:20:12;7.20;;;6.13;;
78985;SDS011;68384;55.750;48.746;2023-05-14T03:21:16;8.68;;;6.43;;
78985;SDS011;68384;55.750;48.746;2023-05-14T03:22:19;7.10;;;5.15;;
78985;SDS011;68384;55.750;48.746;2023-05-14T03:23:23;7.70;;;5.50;;
78985;SDS011;68384;55.750;48.746;2023-05-14T03:24:26;7.85;;;5.95;;
78985;SDS011;68384;55.750;48.746;2023-05-14T03:25:30;7.30;;;5.45;;
78985;SDS011;68384;55.750;48.746;2023-05-14T03:26:33;8.75;;;6.20;;
78985;SDS011;68384;55.750;48.746;2023-05-14T03:27:39;8.23;;;5.88;;
78985;SDS011;68384;55.750;48.746;2023-05-14T03:28:42;15.27;;;7.00;;
78985;SDS011;68384;55.750;48.746;2023-05-14T03:29:46;23.63;;;7.00;;
78985;SDS011;68384;55.750;48.746;2023-05-14T03:30:49;16.23;;;6.88;;
78985;SDS011;68384;55.750;48.746;2023-05-14T03:31:53;8.43;;;6.25;;
78985;SDS011;68384;55.750;48.746;2023-05-14T03:32:57;9.10;;;7.43;;
78985;SDS011;68384;55.750;48.746;2023-05-14T03:34:02;8.20;;;6.10;;
78985;SDS011;68384;55.750;48.746;2023-05-14T03:35:05;9.27;;;6.80;;
78985;SDS011;68384;55.750;48.746;2023-05-14T03:36:10;10.85;;;6.65;;
78985;SDS011;68384;55.750;48.746;2023-05-14T03:37:14;12.18;;;6.68;;
78985;SDS011;68384;55.750;48.746;2023-05-14T03:38:17;14.68;;;7.53;;
78985;SDS011;68384;55.750;48.746;2023-05-14T03:39:21;11.05;;;6.70;;
78985;SDS011;68384;55.750;48.746;2023-05-14T03:40:24;7.47;;;6.18;;
78985;SDS011;68384;55.750;48.746;2023-05-14T03:41:28;20.92;;;7.55;;
78985;SDS011;68384;55.750;48.746;2023-05-14T03:42:31;21.55;;;7.70;;
78985;SDS011;68384;55.750;48.746;2023-05-14T03:43:36;8.07;;;6.40;;
78985;SDS011;68384;55.750;48.746;2023-05-14T03:44:39;7.25;;;6.30;;
78985;SDS011;68384;55.750;48.746;2023-05-14T03:45:43;8.40;;;6.47;;
78985;SDS011;68384;55.750;48.746;2023-05-14T03:46:46;12.52;;;7.40;;
78985;SDS011;68384;55.750;48.746;2023-05-14T03:47:50;7.50;;;5.80;;
78985;SDS011;68384;55.750;48.746;2023-05-14T03:48:53;8.30;;;7.18;;
78985;SDS011;68384;55.750;48.746;2023-05-14T03:49:57;10.77;;;6.47;;
78985;SDS011;68384;55.750;48.746;2023-05-14T03:51:00;10.18;;;6.63;;
78985;SDS011;68384;55.750;48.746;2023-05-14T03:52:04;10.77;;;6.05;;
78985;SDS011;68384;55.750;48.746;2023-05-14T03:53:07;59.78;;;9.88;;
78985;SDS011;68384;55.750;48.746;2023-05-14T03:54:11;13.82;;;6.35;;
78985;SDS011;68384;55.750;48.746;2023-05-14T03:55:14;7.80;;;6.07;;
78985;SDS011;68384;55.750;48.746;2023-05-14T03:56:18;15.82;;;5.93;;
78985;SDS011;68384;55.750;48.746;2023-05-14T03:57:21;10.05;;;6.85;;
78985;SDS011;68384;55.750;48.746;2023-05-14T03:58:25;41.28;;;7.90;;
78985;SDS011;68384;55.750;48.746;2023-05-14T03:59:29;8.00;;;6.03;;
78985;SDS011;68384;55.750;48.746;2023-05-14T04:00:33;16.05;;;7.35;;
78985;SDS011;68384;55.750;48.746;2023-05-14T04:01:37;42.28;;;8.70;;
78985;SDS011;68384;55.750;48.746;2023-05-14T04:02:41;51.45;;;8.43;;
78985;SDS011;68384;55.750;48.746;2023-05-14T04:03:44;27.17;;;7.10;;
78985;SDS011;68384;55.750;48.746;2023-05-14T04:04:48;62.17;;;8.90;;
78985;SDS011;68384;55.750;48.746;2023-05-14T04:05:54;28.15;;;7.97;;
78985;SDS011;68384;55.750;48.746;2023-05-14T04:06:58;27.83;;;7.25;;
78985;SDS011;68384;55.750;48.746;2023-05-14T04:08:02;89.78;;;10.57;;
78985;SDS011;68384;55.750;48.746;2023-05-14T04:09:06;9.05;;;5.53;;
78985;SDS011;68384;55.750;48.746;2023-05-14T04:10:11;13.48;;;6.60;;
78985;SDS011;68384;55.750;48.746;2023-05-14T04:11:15;8.32;;;5.60;;
78985;SDS011;68384;55.750;48.746;2023-05-14T04:12:18;7.78;;;6.18;;
78985;SDS011;68384;55.750;48.746;2023-05-14T04:13:23;24.50;;;7.55;;
78985;SDS011;68384;55.750;48.746;2023-05-14T04:14:26;8.60;;;6.78;;
78985;SDS011;68384;55.750;48.746;2023-05-14T04:15:31;9.95;;;6.97;;
78985;SDS011;68384;55.750;48.746;2023-05-14T04:16:34;8.10;;;6.20;;
78985;SDS011;68384;55.750;48.746;2023-05-14T04:17:39;12.50;;;5.93;;
78985;SDS011;68384;55.750;48.746;2023-05-14T04:18:42;15.32;;;6.78;;
78985;SDS011;68384;55.750;48.746;2023-05-14T04:19:47;8.57;;;6.70;;
78985;SDS011;68384;55.750;48.746;2023-05-14T04:20:49;7.00;;;5.70;;
78985;SDS011;68384;55.750;48.746;2023-05-14T04:21:54;9.48;;;5.82;;
78985;SDS011;68384;55.750;48.746;2023-05-14T04:22:57;9.25;;;6.68;;
78985;SDS011;68384;55.750;48.746;2023-05-14T04:24:01;8.88;;;6.18;;
78985;SDS011;68384;55.750;48.746;2023-05-14T04:25:04;11.02;;;5.90;;
78985;SDS011;68384;55.750;48.746;2023-05-14T04:26:08;27.13;;;6.70;;
78985;SDS011;68384;55.750;48.746;2023-05-14T04:27:13;18.70;;;7.90;;
78985;SDS011;68384;55.750;48.746;2023-05-14T04:28:22;12.65;;;6.40;;
78985;SDS011;68384;55.750;48.746;2023-05-14T04:29:25;10.05;;;7.75;;
78985;SDS011;68384;55.750;48.746;2023-05-14T04:30:29;9.45;;;6.50;;
78985;SDS011;68384;55.750;48.746;2023-05-14T04:31:34;9.30;;;5.38;;
78985;SDS011;68384;55.750;48.746;2023-05-14T04:32:39;8.27;;;6.25;;
78985;SDS011;68384;55.750;48.746;2023-05-14T04:33:42;10.15;;;6.35;;
78985;SDS011;68384;55.750;48.746;2023-05-14T04:34:46;13.27;;;6.63;;
78985;SDS011;68384;55.750;48.746;2023-05-14T04:35:49;8.90;;;6.20;;
78985;SDS011;68384;55.750;48.746;2023-05-14T04:36:53;12.55;;;7.25;;
78985;SDS011;68384;55.750;48.746;2023-05-14T04:37:56;8.98;;;6.50;;
78985;SDS011;68384;55.750;48.746;2023-05-14T04:39:00;12.13;;;6.85;;
78985;SDS011;68384;55.750;48.746;2023-05-14T04:40:03;29.77;;;7.65;;
78985;SDS011;68384;55.750;48.746;2023-05-14T04:41:09;8.90;;;6.30;;
78985;SDS011;68384;55.750;48.746;2023-05-14T04:42:11;31.27;;;8.05;;
78985;SDS011;68384;55.750;48.746;2023-05-14T04:43:15;10.10;;;6.35;;
78985;SDS011;68384;55.750;48.746;2023-05-14T04:44:18;8.77;;;6.28;;
78985;SDS011;68384;55.750;48.746;2023-05-14T04:45:23;10.68;;;7.72;;
78985;SDS011;68384;55.750;48.746;2023-05-14T04:46:26;11.15;;;6.95;;
78985;SDS011;68384;55.750;48.746;2023-05-14T04:47:31;10.13;;;7.05;;
78985;SDS011;68384;55.750;48.746;2023-05-14T04:48:34;8.80;;;6.80;;
78985;SDS011;68384;55.750;48.746;2023-05-14T04:49:38;12.75;;;7.03;;
78985;SDS011;68384;55.750;48.746;2023-05-14T04:50:41;53.85;;;8.65;;
78985;SDS011;68384;55.750;48.746;2023-05-14T04:51:46;18.88;;;6.75;;
78985;SDS011;68384;55.750;48.746;2023-05-14T04:52:49;39.22;;;8.63;;
78985;SDS011;68384;55.750;48.746;2023-05-14T04:53:53;62.70;;;8.13;;
78985;SDS011;68384;55.750;48.746;2023-05-14T04:54:55;23.08;;;8.30;;
78985;SDS011;68384;55.750;48.746;2023-05-14T04:55:59;24.77;;;7.72;;
78985;SDS011;68384;55.750;48.746;2023-05-14T04:57:02;9.63;;;7.25;;
78985;SDS011;68384;55.750;48.746;2023-05-14T04:58:06;9.15;;;6.38;;
78985;SDS011;68384;55.750;48.746;2023-05-14T04:59:10;8.23;;;6.72;;
78985;SDS011;68384;55.750;48.746;2023-05-14T05:00:14;40.05;;;8.35;;
78985;SDS011;68384;55.750;48.746;2023-05-14T05:01:18;11.73;;;7.15;;
78985;SDS011;68384;55.750;48.746;2023-05-14T05:02:22;23.98;;;7.97;;
78985;SDS011;68384;55.750;48.746;2023-05-14T05:03:27;8.40;;;6.65;;
78985;SDS011;68384;55.750;48.746;2023-05-14T05:04:30;18.38;;;6.82;;
78985;SDS011;68384;55.750;48.746;2023-05-14T05:05:34;10.40;;;6.97;;
78985;SDS011;68384;55.750;48.746;2023-05-14T05:06:37;10.50;;;7.30;;
78985;SDS011;68384;55.750;48.746;2023-05-14T05:07:41;9.98;;;7.03;;
78985;SDS011;68384;55.750;48.746;2023-05-14T05:08:44;14.20;;;6.82;;
78985;SDS011;68384;55.750;48.746;2023-05-14T05:09:48;9.68;;;6.50;;
78985;SDS011;68384;55.750;48.746;2023-05-14T05:10:51;12.85;;;6.45;;
78985;SDS011;68384;55.750;48.746;2023-05-14T05:11:54;9.20;;;6.28;;
78985;SDS011;68384;55.750;48.746;2023-05-14T05:12:57;10.60;;;7.05;;
78985;SDS011;68384;55.750;48.746;2023-05-14T05:14:01;14.43;;;7.38;;
78985;SDS011;68384;55.750;48.746;2023-05-14T05:15:04;9.45;;;6.80;;
78985;SDS011;68384;55.750;48.746;2023-05-14T05:16:10;8.15;;;6.43;;
78985;SDS011;68384;55.750;48.746;2023-05-14T05:17:13;9.20;;;6.10;;
78985;SDS011;68384;55.750;48.746;2023-05-14T05:18:17;9.52;;;7.28;;
78985;SDS011;68384;55.750;48.746;2023-05-14T05:19:22;8.25;;;6.47;;
78985;SDS011;68384;55.750;48.746;2023-05-14T05:20:43;8.52;;;6.45;;
78985;SDS011;68384;55.750;48.746;2023-05-14T05:21:47;9.23;;;7.45;;
78985;SDS011;68384;55.750;48.746;2023-05-14T05:22:50;9.48;;;7.15;;
78985;SDS011;68384;55.750;48.746;2023-05-14T05:23:54;14.85;;;6.75;;
78985;SDS011;68384;55.750;48.746;2023-05-14T05:24:56;8.65;;;6.35;;
78985;SDS011;68384;55.750;48.746;2023-05-14T05:26:01;9.65;;;6.75;;
78985;SDS011;68384;55.750;48.746;2023-05-14T05:27:04;9.07;;;6.70;;
78985;SDS011;68384;55.750;48.746;2023-05-14T05:28:08;8.13;;;6.25;;
78985;SDS011;68384;55.750;48.746;2023-05-14T05:29:12;7.70;;;5.85;;
78985;SDS011;68384;55.750;48.746;2023-05-14T05:30:14;7.55;;;5.80;;
78985;SDS011;68384;55.750;48.746;2023-05-14T05:31:18;8.70;;;6.10;;
78985;SDS011;68384;55.750;48.746;2023-05-14T05:32:22;8.05;;;6.32;;
78985;SDS011;68384;55.750;48.746;2023-05-14T05:33:26;7.32;;;6.05;;
78985;SDS011;68384;55.750;48.746;2023-05-14T05:34:30;6.25;;;5.35;;
78985;SDS011;68384;55.750;48.746;2023-05-14T05:35:34;8.00;;;6.03;;
78985;SDS011;68384;55.750;48.746;2023-05-14T05:36:37;6.60;;;5.28;;
78985;SDS011;68384;55.750;48.746;2023-05-14T05:37:41;6.97;;;5.18;;
78985;SDS011;68384;55.750;48.746;2023-05-14T05:38:46;7.07;;;5.45;;
78985;SDS011;68384;55.750;48.746;2023-05-14T05:39:50;6.40;;;5.10;;
78985;SDS011;68384;55.750;48.746;2023-05-14T05:40:53;7.57;;;5.68;;
78985;SDS011;68384;55.750;48.746;2023-05-14T05:41:57;9.75;;;5.95;;
78985;SDS011;68384;55.750;48.746;2023-05-14T05:43:00;6.43;;;4.95;;
78985;SDS011;68384;55.750;48.746;2023-05-14T05:44:04;8.95;;;5.93;;
78985;SDS011;68384;55.750;48.746;2023-05-14T05:45:07;8.10;;;5.60;;
78985;SDS011;68384;55.750;48.746;2023-05-14T05:46:11;8.98;;;5.45;;
78985;SDS011;68384;55.750;48.746;2023-05-14T05:47:14;5.90;;;5.05;;
78985;SDS011;68384;55.750;48.746;2023-05-14T05:48:18;6.68;;;5.25;;
78985;SDS011;68384;55.750;48.746;2023-05-14T05:49:21;8.82;;;4.75;;
78985;SDS011;68384;55.750;48.746;2023-05-14T05:50:27;6.03;;;4.85;;
78985;SDS011;68384;55.750;48.746;2023-05-14T05:51:30;6.32;;;5.00;;
78985;SDS011;68384;55.750;48.746;2023-05-14T05:52:33;6.18;;;4.72;;
78985;SDS011;68384;55.750;48.746;2023-05-14T05:53:36;6.07;;;5.28;;
78985;SDS011;68384;55.750;48.746;2023-05-14T05:54:40;8.90;;;5.60;;
78985;SDS011;68384;55.750;48.746;2023-05-14T05:55:43;6.95;;;5.47;;
78985;SDS011;68384;55.750;48.746;2023-05-14T05:56:47;8.93;;;5.68;;
78985;SDS011;68384;55.750;48.746;2023-05-14T05:57:50;7.55;;;5.32;;
78985;SDS011;68384;55.750;48.746;2023-05-14T05:58:54;5.45;;;4.88;;
78985;SDS011;68384;55.750;48.746;2023-05-14T05:59:57;6.10;;;5.47;;
78985;SDS011;68384;55.750;48.746;2023-05-14T06:01:02;6.68;;;5.03;;
78985;SDS011;68384;55.750;48.746;2023-05-14T06:02:05;5.95;;;4.95;;
78985;SDS011;68384;55.750;48.746;2023-05-14T06:03:09;8.43;;;5.28;;
78985;SDS011;68384;55.750;48.746;2023-05-14T06:04:13;6.85;;;5.45;;
78985;SDS011;68384;55.750;48.746;2023-05-14T06:06:21;6.95;;;5.85;;
78985;SDS011;68384;55.750;48.746;2023-05-14T06:07:25;6.15;;;5.07;;
78985;SDS011;68384;55.750;48.746;2023-05-14T06:08:28;7.10;;;5.15;;
78985;SDS011;68384;55.750;48.746;2023-05-14T06:09:32;6.90;;;5.38;;
78985;SDS011;68384;55.750;48.746;2023-05-14T06:10:35;6.22;;;4.82;;
78985;SDS011;68384;55.750;48.746;2023-05-14T06:11:39;6.40;;;4.97;;
78985;SDS011;68384;55.750;48.746;2023-05-14T06:12:42;7.82;;;5.82;;
78985;SDS011;68384;55.750;48.746;2023-05-14T06:13:46;8.57;;;6.63;;
78985;SDS011;68384;55.750;48.746;2023-05-14T06:14:48;7.05;;;5.68;;
78985;SDS011;68384;55.750;48.746;2023-05-14T06:15:53;6.65;;;5.47;;
78985;SDS011;68384;55.750;48.746;2023-05-14T06:16:55;6.45;;;5.47;;
78985;SDS011;68384;55.750;48.746;2023-05-14T06:18:01;8.05;;;5.55;;
78985;SDS011;68384;55.750;48.746;2023-05-14T06:19:04;7.03;;;5.55;;
78985;SDS011;68384;55.750;48.746;2023-05-14T06:20:09;7.13;;;5.40;;
78985;SDS011;68384;55.750;48.746;2023-05-14T06:21:12;6.95;;;5.18;;